KCID/CID METAR and TAF weather

Enter ICAO airport designator
Station Type Date Time Source
KCID METAR 2019/12/11 16:52 UTC NOAA

KCID 111652Z 36007KT 10SM CLR M08/M15 A3045 RMK AO2 SLP330 T10831150


Station Type Date Time Source
KCID Decoded METAR 2019/12/11 16:52 UTC NOAA

CEDAR RAPIDS AIRPORT, IA, United States (KCID) 41-53N 91-43W
Dec 11, 2019 - 11:52 AM EST / 2019.12.11 1652 UTC
Wind: from the N (360 degrees) at 8 MPH (7 KT):0
Visibility: 10 mile(s):0
Sky conditions: clear
Temperature: 17.1 F (-8.3 C)
Windchill: 6 F (-14 C):1
Dew Point: 5.0 F (-15.0 C)
Relative Humidity: 58%
Pressure (altimeter): 30.45 in. Hg (1031 hPa)
ob: KCID 111652Z 36007KT 10SM CLR M08/M15 A3045 RMK AO2 SLP330 T10831150
cycle: 17

Station Type Date Time Source
KCID TAF 2019/12/11 18:22 UTC NOAA

TAF KCID 111720Z 1118/1218 01008KT P6SM FEW250
FM120300 10007KT P6SM BKN150
FM120900 14011KT P6SM OVC070 WS020/19045KT
FM121500 19015G21KT P6SM SCT030 OVC050

Example: see airport list